Noroton Heights, Connecticut
Current Conditions -  °F | °C
As of 5:56 AM on Sunday 21 Dec 2014 (Local Time) from KHPN Reporting Station
Broken Clouds Broken Clouds  
Wind Chill: 22°   Ceiling: 1500
Heat Index: 29°   Visibility: 10mi
Dew Point: 24°   Wind: 7mph
Humidity: 82%   Direction: 330°NNW
Pressure: 30.25"   Gusts: NA
Location:  41.0804°N, 73.4823°W
Report Text: KHPN 211056Z 33006KT 10SM BKN015 M02/M04 A3025 RMK AO2 SLP253 T10171044
Loading
Personal Weather Stations






























Interactive Weather Map New forecast layout! Learn more

10-Day Weather Forecast

Advertisements
Track Severe Weather on mobile